Campbell, South Dakota
Current Conditions -  °F | °C
As of 1:52 AM on Friday 19 Dec 2014 (Local Time) from KMBG Reporting Station
Haze Haze  
Wind Chill: 11°   Ceiling: Unl
Heat Index: 21°   Visibility: 6mi
Dew Point: 19°   Wind: 8mph
Humidity: 92%   Direction: 140°SE
Pressure: 29.98"   Gusts: NA
Location:  45.6769°N, 100.026°W
Report Text: KMBG 190752Z AUTO 14007KT 6SM BR CLR M06/M07 A2998 RMK AO2 SLP178 I1000 T10611072
Loading
Personal Weather Stations






























Interactive Weather Map New forecast layout! Learn more

10-Day Weather Forecast

Advertisements
Track Severe Weather on mobile